createdAt,value
2023-05-11T00:02:01.498Z,17.10
2023-05-11T00:04:29.598Z,17.18
2023-05-11T00:06:57.970Z,17.20
2023-05-11T00:09:25.817Z,16.88
2023-05-11T00:11:54.206Z,17.06
2023-05-11T00:14:22.313Z,16.74
2023-05-11T00:16:50.673Z,16.81
2023-05-11T00:19:18.529Z,16.84
2023-05-11T00:21:46.946Z,16.55
2023-05-11T00:24:14.899Z,16.47
2023-05-11T00:26:43.025Z,16.31
2023-05-11T00:29:11.058Z,16.41
2023-05-11T00:31:39.606Z,16.60
2023-05-11T00:34:07.584Z,16.64
2023-05-11T00:36:35.979Z,16.61
2023-05-11T00:39:04.336Z,16.50
2023-05-11T00:41:32.579Z,16.59
2023-05-11T00:44:00.587Z,16.49
2023-05-11T00:46:28.861Z,16.47
2023-05-11T00:48:56.915Z,16.61
2023-05-11T00:51:25.252Z,16.64
2023-05-11T00:53:53.187Z,16.90
2023-05-11T00:56:22.099Z,16.98
2023-05-11T00:58:50.205Z,16.86
2023-05-11T01:01:19.014Z,16.83
2023-05-11T01:03:48.268Z,16.94
2023-05-11T01:06:19.308Z,16.91
2023-05-11T01:08:53.191Z,16.73
2023-05-11T01:11:34.145Z,16.79
2023-05-11T01:14:14.653Z,16.93
2023-05-11T01:16:49.330Z,16.71
2023-05-11T01:19:28.040Z,16.49
2023-05-11T01:21:56.462Z,16.56
2023-05-11T01:24:30.312Z,16.44
2023-05-11T01:27:32.189Z,16.75
2023-05-11T01:30:30.997Z,16.53
2023-05-11T01:33:08.145Z,16.57
2023-05-11T01:35:39.595Z,16.56
2023-05-11T01:38:12.092Z,16.50
2023-05-11T01:40:43.160Z,16.28
2023-05-11T01:43:22.251Z,16.45
2023-05-11T01:45:52.990Z,16.17
2023-05-11T01:48:26.183Z,16.27
2023-05-11T01:51:00.857Z,16.32
2023-05-11T01:53:33.497Z,16.13
2023-05-11T01:56:02.857Z,16.08
2023-05-11T01:58:32.540Z,16.08
2023-05-11T02:01:03.681Z,16.30
2023-05-11T02:03:35.876Z,16.57
2023-05-11T02:06:07.150Z,16.42
2023-05-11T02:08:39.608Z,16.36
2023-05-11T02:11:08.741Z,16.66
2023-05-11T02:13:42.045Z,16.37
2023-05-11T02:16:11.172Z,16.41
2023-05-11T02:18:41.579Z,16.02
2023-05-11T02:21:11.180Z,15.88
2023-05-11T02:23:42.169Z,16.13
2023-05-11T02:26:13.090Z,16.60
2023-05-11T02:28:41.471Z,16.56
2023-05-11T02:31:28.046Z,16.36
2023-05-11T02:34:08.379Z,16.12
2023-05-11T02:36:39.268Z,16.00
2023-05-11T02:39:13.472Z,15.98
2023-05-11T02:41:44.721Z,16.16
2023-05-11T02:44:17.903Z,16.10
2023-05-11T02:46:49.034Z,16.02
2023-05-11T02:49:21.432Z,16.22
2023-05-11T02:51:52.901Z,16.12
2023-05-11T02:54:24.065Z,15.98
2023-05-11T02:56:55.319Z,15.94
2023-05-11T02:59:25.226Z,16.28
2023-05-11T03:01:55.017Z,16.09
2023-05-11T03:04:24.595Z,15.99
2023-05-11T03:06:52.898Z,16.33
2023-05-11T03:09:21.066Z,16.44
2023-05-11T03:11:51.050Z,16.35
2023-05-11T03:14:20.262Z,16.42
2023-05-11T03:16:49.464Z,16.49
2023-05-11T03:19:18.361Z,16.66
2023-05-11T03:21:47.954Z,16.50
2023-05-11T03:24:17.073Z,16.45
2023-05-11T03:26:46.319Z,16.59
2023-05-11T03:29:16.878Z,16.62
2023-05-11T03:31:45.009Z,16.54
2023-05-11T03:34:13.632Z,16.57
2023-05-11T03:36:46.975Z,16.47
2023-05-11T03:39:17.565Z,16.57
2023-05-11T03:41:49.741Z,16.53
2023-05-11T03:44:21.565Z,16.21
2023-05-11T03:46:53.957Z,16.25
2023-05-11T03:49:22.594Z,15.98
2023-05-11T03:51:50.876Z,15.90
2023-05-11T03:54:19.615Z,16.13
2023-05-11T03:56:47.647Z,16.02
2023-05-11T03:59:16.692Z,16.03
2023-05-11T04:01:45.581Z,15.72
2023-05-11T04:04:13.972Z,15.52
2023-05-11T04:06:41.943Z,15.85
2023-05-11T04:09:14.743Z,15.74
2023-05-11T04:11:42.586Z,15.38
2023-05-11T04:14:10.946Z,15.34
2023-05-11T04:16:39.025Z,15.47
2023-05-11T04:19:07.788Z,15.45
2023-05-11T04:21:36.242Z,15.65
2023-05-11T04:24:05.092Z,15.67
2023-05-11T04:26:33.033Z,15.39
2023-05-11T04:29:01.287Z,15.70
2023-05-11T04:31:30.787Z,15.70
2023-05-11T04:34:00.966Z,15.70
2023-05-11T04:36:29.024Z,15.99
2023-05-11T04:38:57.350Z,15.92
2023-05-11T04:41:25.357Z,15.96
2023-05-11T04:43:54.734Z,15.99
2023-05-11T04:46:23.852Z,16.06
2023-05-11T04:48:53.062Z,16.22
2023-05-11T04:51:46.124Z,16.11
2023-05-11T04:54:17.052Z,16.07
2023-05-11T04:56:45.956Z,16.29
2023-05-11T04:59:15.535Z,16.32
2023-05-11T05:01:43.442Z,16.51
2023-05-11T05:04:11.796Z,16.47
2023-05-11T05:06:40.003Z,16.42
2023-05-11T05:09:08.372Z,16.35
2023-05-11T05:11:36.554Z,16.51
2023-05-11T05:14:04.846Z,16.56
2023-05-11T05:16:32.881Z,16.58
2023-05-11T05:19:01.590Z,16.50
2023-05-11T05:21:32.604Z,16.58
2023-05-11T05:24:01.001Z,16.62
2023-05-11T05:26:29.439Z,16.28
2023-05-11T05:28:57.772Z,16.52
2023-05-11T05:31:26.463Z,16.80
2023-05-11T05:33:54.958Z,16.30
2023-05-11T05:36:23.084Z,16.37
2023-05-11T05:38:51.446Z,16.63
2023-05-11T05:41:19.846Z,16.21
2023-05-11T05:43:48.953Z,16.01
2023-05-11T05:46:18.676Z,15.89
2023-05-11T05:48:47.911Z,15.76
2023-05-11T05:51:16.692Z,15.81
2023-05-11T05:53:45.125Z,15.76
2023-05-11T05:56:13.048Z,15.57
2023-05-11T05:58:41.548Z,15.52
2023-05-11T06:01:09.564Z,15.63
2023-05-11T06:03:39.191Z,15.68
2023-05-11T06:06:07.766Z,15.57
2023-05-11T06:08:36.384Z,15.84
2023-05-11T06:11:04.322Z,15.64
2023-05-11T06:13:32.639Z,15.77
2023-05-11T06:16:02.390Z,15.44
2023-05-11T06:18:34.503Z,15.23
2023-05-11T06:21:04.412Z,15.36
2023-05-11T06:23:34.302Z,15.29
2023-05-11T06:26:02.177Z,15.27
2023-05-11T06:28:32.853Z,15.50
2023-05-11T06:31:04.635Z,15.23
2023-05-11T06:33:36.535Z,15.37
2023-05-11T06:36:08.462Z,15.49
2023-05-11T06:38:37.759Z,15.39
2023-05-11T06:41:06.530Z,15.97
2023-05-11T06:43:34.883Z,16.00
2023-05-11T06:46:04.932Z,16.19
2023-05-11T06:48:34.247Z,15.86
2023-05-11T06:51:02.115Z,15.93
2023-05-11T06:53:30.471Z,16.03
2023-05-11T06:55:59.301Z,16.02
2023-05-11T06:58:27.786Z,16.27
2023-05-11T07:00:55.821Z,16.17
2023-05-11T07:03:24.165Z,16.44
2023-05-11T07:05:52.091Z,16.61
2023-05-11T07:08:20.866Z,16.87
2023-05-11T07:10:48.854Z,16.69
2023-05-11T07:13:17.049Z,16.84
2023-05-11T07:15:44.964Z,16.40
2023-05-11T07:18:13.350Z,16.36
2023-05-11T07:20:41.385Z,16.37
2023-05-11T07:23:10.279Z,16.59
2023-05-11T07:25:38.190Z,16.42
2023-05-11T07:28:06.516Z,16.19
2023-05-11T07:30:34.577Z,16.20
2023-05-11T07:33:03.563Z,16.21
2023-05-11T07:35:31.711Z,16.54
2023-05-11T07:38:00.064Z,16.73
2023-05-11T07:40:28.044Z,17.06
2023-05-11T07:42:56.382Z,16.93
2023-05-11T07:45:24.275Z,16.87
2023-05-11T07:47:53.615Z,17.00
2023-05-11T07:50:23.930Z,16.93
2023-05-11T07:52:52.904Z,16.91
2023-05-11T07:55:25.094Z,16.62
2023-05-11T07:57:57.131Z,16.84
2023-05-11T08:00:25.025Z,16.72
2023-05-11T08:02:53.857Z,16.99
2023-05-11T08:05:22.323Z,16.51
2023-05-11T08:07:50.972Z,16.70
2023-05-11T08:10:18.951Z,16.82
2023-05-11T08:12:47.147Z,16.80
2023-05-11T08:15:15.103Z,16.81
2023-05-11T08:17:43.596Z,16.77
2023-05-11T08:20:12.062Z,17.07
2023-05-11T08:22:40.410Z,17.11
2023-05-11T08:25:08.804Z,17.01
2023-05-11T08:27:37.094Z,16.42
2023-05-11T08:30:07.229Z,16.56
2023-05-11T08:32:46.657Z,16.82
2023-05-11T08:35:25.011Z,16.69
2023-05-11T08:37:53.345Z,16.71
2023-05-11T08:40:24.315Z,16.27
2023-05-11T08:42:57.432Z,16.49
2023-05-11T08:45:27.542Z,16.36
2023-05-11T08:47:55.996Z,16.73
2023-05-11T08:50:24.057Z,16.31
2023-05-11T08:52:52.382Z,16.61
2023-05-11T08:55:22.631Z,16.80
2023-05-11T08:57:53.592Z,16.80
2023-05-11T09:00:23.766Z,16.59
2023-05-11T09:02:52.733Z,16.83
2023-05-11T09:05:21.782Z,16.70
2023-05-11T09:07:53.645Z,16.96
2023-05-11T09:10:21.582Z,16.76
2023-05-11T09:12:49.841Z,16.68
2023-05-11T09:15:17.810Z,16.53
2023-05-11T09:17:46.059Z,16.44
2023-05-11T09:20:14.080Z,16.47
2023-05-11T09:22:47.158Z,16.15
2023-05-11T09:25:17.908Z,16.39
2023-05-11T09:27:47.588Z,16.33
2023-05-11T09:30:23.736Z,16.35
2023-05-11T09:32:55.526Z,16.11
2023-05-11T09:35:29.085Z,16.56
2023-05-11T09:38:09.908Z,16.65
2023-05-11T09:40:55.392Z,16.70
2023-05-11T09:43:30.454Z,16.94
2023-05-11T09:46:07.841Z,16.38
2023-05-11T09:48:36.526Z,16.17
2023-05-11T09:51:06.344Z,16.81
2023-05-11T09:53:37.586Z,16.25
2023-05-11T09:56:05.887Z,16.65
2023-05-11T09:58:54.550Z,16.35
2023-05-11T10:01:31.025Z,16.36
2023-05-11T10:04:17.853Z,16.75
2023-05-11T10:06:53.838Z,16.44
2023-05-11T10:09:26.077Z,16.36
2023-05-11T10:11:55.671Z,16.17
2023-05-11T10:14:24.998Z,16.17
2023-05-11T10:16:54.066Z,16.33
2023-05-11T10:19:22.666Z,16.26
2023-05-11T10:21:52.683Z,16.81
2023-05-11T10:24:21.160Z,17.08
2023-05-11T10:26:50.985Z,16.48
2023-05-11T10:29:19.940Z,16.60
2023-05-11T10:31:48.842Z,16.23
2023-05-11T10:34:18.261Z,16.44
2023-05-11T10:36:46.905Z,16.26
2023-05-11T10:39:15.001Z,16.64
2023-05-11T10:42:02.018Z,16.40
2023-05-11T10:44:44.442Z,16.64
2023-05-11T10:47:31.654Z,16.28
2023-05-11T10:50:21.463Z,16.70
2023-05-11T10:53:01.761Z,16.49
2023-05-11T10:56:01.973Z,16.97
2023-05-11T10:58:49.434Z,16.70
2023-05-11T11:01:21.105Z,17.06
2023-05-11T11:04:05.800Z,16.46
2023-05-11T11:06:36.444Z,16.41
2023-05-11T11:09:24.724Z,16.95
2023-05-11T11:12:09.923Z,17.35
2023-05-11T11:15:04.843Z,16.88
2023-05-11T11:17:36.538Z,16.82
2023-05-11T11:20:08.501Z,16.62
2023-05-11T11:22:38.664Z,16.59
2023-05-11T11:25:11.295Z,16.91
2023-05-11T11:27:45.327Z,16.77
2023-05-11T11:30:25.553Z,17.07
2023-05-11T11:32:56.382Z,16.80
2023-05-11T11:35:42.825Z,16.83
2023-05-11T11:38:21.885Z,17.00
2023-05-11T11:40:54.100Z,17.01
2023-05-11T11:43:23.768Z,16.83
2023-05-11T11:46:02.172Z,17.00
2023-05-11T11:48:38.478Z,16.94
2023-05-11T11:51:11.863Z,16.91
2023-05-11T11:53:41.322Z,16.97
2023-05-11T11:56:15.113Z,17.03
2023-05-11T11:58:44.324Z,17.10
2023-05-11T12:01:20.173Z,17.26
2023-05-11T12:04:20.460Z,17.59
2023-05-11T12:07:09.612Z,17.39
2023-05-11T12:09:39.118Z,17.65
2023-05-11T12:12:08.972Z,17.58
2023-05-11T12:14:37.585Z,17.22
2023-05-11T12:17:13.744Z,17.89
2023-05-11T12:19:46.909Z,17.79
2023-05-11T12:22:16.658Z,17.95
2023-05-11T12:24:45.185Z,17.88
2023-05-11T12:27:13.540Z,17.71
2023-05-11T12:29:41.744Z,17.68
2023-05-11T12:32:13.631Z,17.49
2023-05-11T12:34:42.122Z,17.68
2023-05-11T12:37:10.130Z,17.93
2023-05-11T12:39:38.544Z,17.46
2023-05-11T12:42:06.649Z,17.80
2023-05-11T12:44:35.125Z,17.81
2023-05-11T12:47:03.264Z,18.29
2023-05-11T12:49:31.623Z,18.00
2023-05-11T12:51:59.370Z,18.02
2023-05-11T12:54:38.700Z,18.59
2023-05-11T12:57:09.374Z,18.51
2023-05-11T12:59:40.701Z,18.67
2023-05-11T13:02:20.522Z,18.23
2023-05-11T13:04:49.115Z,18.49
2023-05-11T13:07:28.842Z,18.77
2023-05-11T13:09:58.431Z,19.35
2023-05-11T13:12:28.879Z,19.49
2023-05-11T13:15:15.027Z,19.29
2023-05-11T13:17:43.568Z,19.51
2023-05-11T13:20:27.669Z,19.82
2023-05-11T13:23:16.081Z,19.91
2023-05-11T13:25:50.071Z,19.96
2023-05-11T13:28:21.407Z,19.29
2023-05-11T13:30:51.750Z,19.15
2023-05-11T13:33:20.209Z,19.18
2023-05-11T13:35:48.457Z,18.74
2023-05-11T13:38:16.500Z,18.15
2023-05-11T13:40:44.732Z,18.12
2023-05-11T13:43:12.566Z,18.55
2023-05-11T13:45:41.542Z,18.62
2023-05-11T13:48:09.556Z,18.65
2023-05-11T13:50:37.954Z,18.90
2023-05-11T13:53:05.773Z,18.52
2023-05-11T13:55:36.718Z,18.28
2023-05-11T13:58:04.737Z,18.32
2023-05-11T14:00:35.182Z,18.19
2023-05-11T14:03:04.172Z,18.58
2023-05-11T14:05:33.140Z,18.34
2023-05-11T14:08:01.029Z,18.17
2023-05-11T14:10:29.249Z,18.02
2023-05-11T14:12:57.143Z,17.84
2023-05-11T14:15:25.659Z,17.94
2023-05-11T14:17:53.605Z,18.62
2023-05-11T14:20:21.921Z,18.57
2023-05-11T14:22:49.735Z,18.21
2023-05-11T14:25:18.251Z,18.48
2023-05-11T14:27:46.353Z,18.51
2023-05-11T14:30:14.793Z,18.51
2023-05-11T14:32:42.710Z,19.12
2023-05-11T14:35:10.973Z,18.52
2023-05-11T14:37:39.585Z,18.56
2023-05-11T14:40:08.311Z,18.54
2023-05-11T14:42:36.273Z,18.25
2023-05-11T14:45:06.067Z,18.16
2023-05-11T14:47:34.150Z,18.09
2023-05-11T14:50:02.424Z,18.62
2023-05-11T14:52:30.277Z,18.66
2023-05-11T14:54:58.810Z,17.99
2023-05-11T14:57:27.031Z,18.07
2023-05-11T15:00:00.168Z,18.04
2023-05-11T15:02:29.228Z,18.51
2023-05-11T15:04:57.680Z,18.66
2023-05-11T15:07:25.676Z,18.65
2023-05-11T15:09:54.218Z,18.65
2023-05-11T15:12:22.106Z,18.91
2023-05-11T15:14:50.892Z,18.64
2023-05-11T15:17:18.747Z,18.05
2023-05-11T15:19:47.253Z,18.28
2023-05-11T15:22:17.554Z,18.50
2023-05-11T15:24:45.869Z,18.56
2023-05-11T15:27:13.894Z,18.61
2023-05-11T15:29:42.556Z,18.23
2023-05-11T15:32:15.551Z,18.55
2023-05-11T15:34:55.182Z,18.46
2023-05-11T15:37:27.051Z,18.88
2023-05-11T15:39:55.387Z,18.73
2023-05-11T15:42:23.352Z,18.91
2023-05-11T15:44:51.830Z,18.92
2023-05-11T15:47:19.636Z,19.08
2023-05-11T15:49:47.865Z,18.86
2023-05-11T15:52:15.939Z,18.98
2023-05-11T15:54:44.227Z,18.83
2023-05-11T15:57:12.245Z,18.82
2023-05-11T15:59:40.938Z,18.91
2023-05-11T16:02:08.914Z,19.13
2023-05-11T16:04:37.206Z,19.19
2023-05-11T16:07:05.238Z,19.36
2023-05-11T16:09:33.507Z,19.28
2023-05-11T16:12:01.826Z,18.45
2023-05-11T16:14:30.032Z,18.77
2023-05-11T16:16:59.364Z,18.71
2023-05-11T16:19:28.322Z,18.37
2023-05-11T16:21:56.615Z,17.92
2023-05-11T16:24:24.995Z,18.49
2023-05-11T16:26:53.043Z,18.55
2023-05-11T16:29:21.604Z,18.01
2023-05-11T16:31:49.530Z,17.63
2023-05-11T16:34:18.317Z,17.88
2023-05-11T16:36:46.304Z,17.67
2023-05-11T16:39:14.644Z,18.36
2023-05-11T16:41:42.546Z,18.26
2023-05-11T16:44:10.694Z,18.61
2023-05-11T16:46:38.606Z,18.23
2023-05-11T16:49:06.898Z,18.13
2023-05-11T16:51:34.965Z,18.36
2023-05-11T16:54:03.190Z,18.09
2023-05-11T16:56:31.132Z,18.22
2023-05-11T16:58:59.366Z,18.41
2023-05-11T17:01:27.425Z,18.70
2023-05-11T17:03:55.833Z,18.74
2023-05-11T17:06:25.223Z,18.69
2023-05-11T17:08:54.378Z,18.77
2023-05-11T17:11:22.268Z,18.69
2023-05-11T17:13:51.210Z,18.66
2023-05-11T17:16:19.660Z,18.43
2023-05-11T17:18:48.022Z,18.27
2023-05-11T17:21:17.140Z,18.28
2023-05-11T17:23:45.541Z,18.13
2023-05-11T17:26:13.767Z,18.15
2023-05-11T17:28:41.978Z,18.17
2023-05-11T17:31:12.192Z,18.36
2023-05-11T17:33:41.979Z,18.27
2023-05-11T17:36:10.256Z,18.06
2023-05-11T17:38:38.876Z,18.11
2023-05-11T17:41:07.033Z,18.22
2023-05-11T17:43:37.987Z,18.20
2023-05-11T17:46:06.190Z,17.93
2023-05-11T17:48:34.563Z,17.70
2023-05-11T17:51:02.618Z,17.68
2023-05-11T17:53:31.137Z,17.79
2023-05-11T17:56:01.761Z,17.88
2023-05-11T17:58:29.950Z,17.36
2023-05-11T18:00:57.753Z,17.55
2023-05-11T18:03:26.566Z,17.60
2023-05-11T18:05:54.505Z,17.46
2023-05-11T18:08:22.673Z,17.56
2023-05-11T18:10:50.487Z,17.60
2023-05-11T18:13:18.646Z,17.30
2023-05-11T18:15:47.411Z,17.40
2023-05-11T18:18:16.647Z,17.51
2023-05-11T18:20:47.225Z,17.37
2023-05-11T18:23:15.703Z,17.40
2023-05-11T18:25:43.626Z,17.25
2023-05-11T18:28:11.851Z,17.02
2023-05-11T18:30:39.804Z,17.26
2023-05-11T18:33:08.265Z,17.22
2023-05-11T18:35:39.295Z,17.08
2023-05-11T18:38:08.133Z,17.16
2023-05-11T18:40:36.120Z,17.18
2023-05-11T18:43:04.781Z,17.26
2023-05-11T18:45:35.242Z,17.35
2023-05-11T18:48:04.052Z,17.18
2023-05-11T18:50:31.924Z,17.14
2023-05-11T18:53:00.230Z,17.01
2023-05-11T18:55:30.788Z,17.40
2023-05-11T18:58:00.574Z,17.08
2023-05-11T19:00:29.113Z,16.71
2023-05-11T19:02:57.603Z,16.62
2023-05-11T19:05:25.759Z,16.97
2023-05-11T19:07:54.179Z,16.95
2023-05-11T19:10:24.745Z,16.76
2023-05-11T19:12:53.183Z,16.93
2023-05-11T19:15:21.062Z,17.06
2023-05-11T19:17:49.359Z,16.97
2023-05-11T19:20:17.504Z,17.27
2023-05-11T19:22:46.220Z,16.91
2023-05-11T19:25:14.090Z,16.86
2023-05-11T19:27:42.270Z,17.12
2023-05-11T19:30:10.513Z,16.73
2023-05-11T19:32:39.220Z,16.89
2023-05-11T19:35:07.670Z,17.14
2023-05-11T19:37:36.029Z,16.82
2023-05-11T19:40:26.649Z,17.25
2023-05-11T19:42:53.081Z,16.98
2023-05-11T19:45:21.147Z,17.00
2023-05-11T19:47:49.754Z,17.05
2023-05-11T19:50:20.418Z,17.05
2023-05-11T19:52:50.582Z,17.17
2023-05-11T19:55:18.545Z,16.71
2023-05-11T19:57:46.433Z,17.04
2023-05-11T20:00:14.838Z,17.09
2023-05-11T20:02:42.797Z,17.06
2023-05-11T20:05:11.152Z,17.36
2023-05-11T20:07:40.568Z,17.11
2023-05-11T20:10:09.518Z,17.07
2023-05-11T20:12:38.343Z,17.08
2023-05-11T20:15:08.640Z,17.00
2023-05-11T20:17:37.268Z,16.70
2023-05-11T20:20:07.573Z,17.10
2023-05-11T20:22:36.954Z,17.04
2023-05-11T20:25:13.908Z,17.15
2023-05-11T20:27:45.965Z,17.03
2023-05-11T20:30:15.220Z,17.17
2023-05-11T20:34:06.825Z,17.44
2023-05-11T20:35:33.175Z,17.42
2023-05-11T20:38:02.107Z,17.20
2023-05-11T20:40:30.690Z,17.14
2023-05-11T20:42:58.610Z,17.11
2023-05-11T20:45:26.887Z,17.13
2023-05-11T20:47:54.849Z,16.93
2023-05-11T20:50:23.647Z,17.13
2023-05-11T20:52:51.564Z,17.14
2023-05-11T20:55:20.228Z,17.12
2023-05-11T20:57:48.338Z,17.22
2023-05-11T21:00:17.827Z,17.33
2023-05-11T21:02:46.813Z,17.31
2023-05-11T21:05:15.260Z,17.27
2023-05-11T21:07:43.305Z,17.38
2023-05-11T21:10:13.151Z,17.29
2023-05-11T21:12:41.184Z,17.36
2023-05-11T21:15:10.134Z,17.19
2023-05-11T21:17:38.015Z,17.33
2023-05-11T21:20:06.723Z,17.16
2023-05-11T21:22:36.689Z,17.22
2023-05-11T21:25:05.542Z,16.97
2023-05-11T21:27:33.609Z,16.67
2023-05-11T21:30:01.945Z,16.79
2023-05-11T21:32:29.893Z,16.55
2023-05-11T21:34:58.374Z,16.83
2023-05-11T21:37:26.349Z,17.03
2023-05-11T21:39:54.606Z,16.63
2023-05-11T21:42:22.424Z,16.48
2023-05-11T21:44:50.996Z,15.95
2023-05-11T21:47:18.913Z,16.22
2023-05-11T21:49:47.238Z,16.52
2023-05-11T21:52:15.274Z,16.25
2023-05-11T21:54:43.791Z,16.13
2023-05-11T21:57:11.862Z,16.59
2023-05-11T21:59:40.039Z,16.34
2023-05-11T22:02:08.138Z,16.05
2023-05-11T22:04:36.537Z,16.07
2023-05-11T22:07:04.768Z,16.02
2023-05-11T22:09:33.129Z,16.33
2023-05-11T22:12:01.146Z,16.40
2023-05-11T22:14:30.271Z,16.30
2023-05-11T22:16:58.628Z,16.15
2023-05-11T22:19:27.405Z,16.32
2023-05-11T22:21:55.343Z,16.40
2023-05-11T22:24:25.513Z,16.27
2023-05-11T22:26:54.455Z,16.47
2023-05-11T22:29:22.772Z,16.49
2023-05-11T22:31:50.713Z,16.46
2023-05-11T22:34:24.549Z,16.88
2023-05-11T22:36:52.413Z,16.83
2023-05-11T22:39:21.549Z,16.53
2023-05-11T22:41:49.436Z,16.48
2023-05-11T22:44:18.113Z,16.52
2023-05-11T22:46:46.195Z,16.45
2023-05-11T22:49:15.065Z,16.33
2023-05-11T22:51:46.130Z,16.33
2023-05-11T22:54:17.465Z,16.23
2023-05-11T22:56:45.445Z,16.30
2023-05-11T22:59:13.816Z,16.34
2023-05-11T23:01:42.388Z,16.27
2023-05-11T23:04:11.066Z,16.26
2023-05-11T23:06:38.912Z,16.41
2023-05-11T23:09:07.284Z,16.50
2023-05-11T23:11:35.298Z,16.62
2023-05-11T23:14:04.294Z,16.52
2023-05-11T23:16:32.318Z,16.17
2023-05-11T23:19:02.641Z,16.03
2023-05-11T23:21:30.630Z,16.08
2023-05-11T23:23:59.101Z,16.42
2023-05-11T23:26:27.030Z,16.13
2023-05-11T23:28:55.350Z,16.07
2023-05-11T23:31:23.310Z,16.08
2023-05-11T23:33:51.562Z,16.31
2023-05-11T23:36:19.510Z,16.40
2023-05-11T23:38:47.755Z,16.36
2023-05-11T23:41:15.726Z,16.42
2023-05-11T23:43:44.036Z,16.22
2023-05-11T23:46:12.068Z,16.20
2023-05-11T23:48:40.631Z,16.19
2023-05-11T23:51:08.757Z,16.40
2023-05-11T23:53:38.593Z,16.28
2023-05-11T23:56:07.022Z,16.37
2023-05-11T23:58:35.269Z,16.25
